Time;durP1;ratioP1;P1;durP2;ratioP2;P2;SDS_P1;SDS_P2;PMS_P1;PMS_P2;Temp;Humidity;BMP_temperature;BMP_pressure;BME280_temperature;BME280_humidity;BME280_pressure;Samples;Min_cycle;Max_cycle;Signal;HPM_P1;HPM_P2
2022/05/06 00:01:30;;;;;;;2.88;2.08;;;19.20;52.30;;;;;;4485141;31;20121;-64
2022/05/06 00:03:56;;;;;;;2.38;1.88;;;19.20;52.30;;;;;;4498369;31;20124;-64
2022/05/06 00:06:21;;;;;;;2.35;2.05;;;19.20;52.30;;;;;;4498253;31;20486;-64
2022/05/06 00:08:47;;;;;;;2.88;2.20;;;19.20;52.30;;;;;;4497433;31;20128;-64
2022/05/06 00:11:13;;;;;;;2.53;1.80;;;19.20;52.30;;;;;;4498878;31;20271;-64
2022/05/06 00:13:41;;;;;;;3.47;2.33;;;19.10;52.20;;;;;;4498399;31;20132;-64
2022/05/06 00:16:08;;;;;;;3.13;2.22;;;19.20;52.30;;;;;;4497430;31;20120;-64
2022/05/06 00:18:35;;;;;;;2.80;2.20;;;19.10;52.20;;;;;;4499304;31;20258;-64
2022/05/06 00:21:01;;;;;;;2.45;1.80;;;19.10;52.20;;;;;;4484005;31;20616;-64
2022/05/06 00:23:27;;;;;;;2.28;2.00;;;19.10;52.20;;;;;;4484934;31;20224;-64
2022/05/06 00:25:53;;;;;;;2.78;2.00;;;19.10;52.20;;;;;;4497236;31;20194;-64
2022/05/06 00:28:19;;;;;;;2.28;2.00;;;19.10;52.20;;;;;;4484616;31;20136;-64
2022/05/06 00:30:44;;;;;;;3.17;1.98;;;19.10;52.20;;;;;;4497769;31;20136;-64
2022/05/06 00:33:10;;;;;;;2.35;1.80;;;19.10;52.20;;;;;;4497178;31;20131;-64
2022/05/06 00:35:36;;;;;;;2.63;1.92;;;19.10;52.20;;;;;;4484893;31;20117;-64
2022/05/06 00:38:03;;;;;;;2.50;2.00;;;19.10;52.20;;;;;;4483830;31;20132;-65
2022/05/06 00:40:29;;;;;;;3.20;1.88;;;19.10;52.20;;;;;;4484625;31;20202;-64
2022/05/06 00:42:58;;;;;;;2.40;2.00;;;19.10;52.20;;;;;;4497015;31;20206;-64
2022/05/06 00:45:44;;;;;;;2.60;1.77;;;19.10;52.20;;;;;;4497565;31;20715;-65
2022/05/06 00:48:11;;;;;;;2.53;1.85;;;19.10;52.20;;;;;;4498686;31;20134;-65
2022/05/06 00:50:38;;;;;;;2.67;1.95;;;19.10;52.20;;;;;;4496306;31;20116;-64
2022/05/06 00:53:06;;;;;;;2.70;2.13;;;19.10;52.20;;;;;;4484454;31;20277;-64
2022/05/06 00:55:36;;;;;;;2.25;1.90;;;19.10;52.20;;;;;;4496590;31;20210;-64
2022/05/06 00:58:03;;;;;;;2.17;1.85;;;19.10;52.20;;;;;;4497168;31;20124;-64
2022/05/06 01:00:29;;;;;;;2.13;1.77;;;19.10;52.20;;;;;;4498116;31;20915;-64
2022/05/06 01:02:55;;;;;;;2.08;1.73;;;19.00;52.10;;;;;;4497828;31;20593;-64
2022/05/06 01:05:25;;;;;;;2.47;2.03;;;19.10;52.20;;;;;;4497307;31;20132;-64
2022/05/06 01:07:52;;;;;;;2.17;1.98;;;19.00;52.10;;;;;;4483506;31;20143;-64
2022/05/06 01:10:19;;;;;;;2.88;1.65;;;19.00;52.10;;;;;;4470924;31;20136;-64
2022/05/06 01:12:46;;;;;;;2.63;1.88;;;19.00;52.10;;;;;;4483662;31;20194;-64
2022/05/06 01:15:22;;;;;;;2.40;2.17;;;19.00;52.10;;;;;;4497055;31;20505;-64
2022/05/06 01:17:49;;;;;;;1.77;1.60;;;19.00;52.00;;;;;;4497937;31;20224;-65
2022/05/06 01:20:16;;;;;;;2.35;1.92;;;19.00;52.00;;;;;;4497321;31;20151;-65
2022/05/06 01:22:44;;;;;;;2.35;1.95;;;19.00;52.10;;;;;;4497331;31;20144;-64
2022/05/06 01:25:11;;;;;;;3.10;1.88;;;19.00;52.00;;;;;;4496131;31;20137;-65
2022/05/06 01:27:44;;;;;;;2.92;1.85;;;19.00;52.10;;;;;;4484078;31;20155;-64
2022/05/06 01:30:22;;;;;;;1.70;1.50;;;19.00;52.00;;;;;;4496481;31;20218;-65
2022/05/06 01:32:50;;;;;;;1.95;1.80;;;19.00;52.00;;;;;;4496585;31;20656;-64
2022/05/06 01:35:17;;;;;;;2.03;1.58;;;19.00;52.00;;;;;;4497062;31;20137;-64
2022/05/06 01:37:45;;;;;;;2.17;1.80;;;19.00;52.10;;;;;;4496979;31;20181;-64
2022/05/06 01:40:15;;;;;;;1.92;1.58;;;19.00;52.10;;;;;;4483812;31;20147;-64
2022/05/06 01:42:43;;;;;;;2.10;1.90;;;19.00;52.10;;;;;;4497152;31;20144;-64
2022/05/06 01:45:13;;;;;;;3.15;1.73;;;18.90;52.00;;;;;;4496579;31;20132;-64
2022/05/06 01:47:40;;;;;;;2.65;1.70;;;18.90;52.00;;;;;;4506349;31;20190;-65
2022/05/06 01:50:09;;;;;;;1.88;1.42;;;18.90;52.00;;;;;;4512818;31;20289;-64
2022/05/06 01:52:38;;;;;;;2.45;1.83;;;18.90;52.00;;;;;;4512767;31;20166;-64
2022/05/06 01:55:06;;;;;;;2.13;1.65;;;18.90;51.90;;;;;;4498767;31;20136;-64
2022/05/06 01:57:32;;;;;;;2.70;1.77;;;18.90;51.90;;;;;;4513719;31;20128;-64
2022/05/06 01:59:58;;;;;;;2.10;1.90;;;18.90;51.90;;;;;;4498807;31;20294;-64
2022/05/06 02:02:24;;;;;;;2.15;1.70;;;18.90;52.00;;;;;;4512314;31;20134;-64
2022/05/06 02:07:34;;;;;;;1.70;1.60;;;18.90;51.90;;;;;;4511889;31;20187;-64
2022/05/06 02:10:00;;;;;;;2.10;1.90;;;18.90;51.90;;;;;;4499428;31;20241;-64
2022/05/06 02:12:26;;;;;;;2.05;1.65;;;18.90;51.90;;;;;;4512655;31;20290;-64
2022/05/06 02:14:52;;;;;;;2.10;1.77;;;18.80;51.90;;;;;;4499109;31;20217;-64
2022/05/06 02:17:18;;;;;;;2.00;1.80;;;18.90;52.00;;;;;;4498558;31;20609;-64
2022/05/06 02:19:44;;;;;;;2.38;1.50;;;18.80;51.90;;;;;;4513054;31;20142;-64
2022/05/06 02:22:10;;;;;;;2.15;1.65;;;18.90;51.90;;;;;;4512354;31;20132;-65
2022/05/06 02:24:35;;;;;;;1.65;1.40;;;18.80;51.90;;;;;;4511545;31;20189;-64
2022/05/06 02:27:01;;;;;;;2.15;1.80;;;18.80;51.90;;;;;;4499372;31;20150;-64
2022/05/06 02:29:27;;;;;;;1.50;1.40;;;18.80;51.90;;;;;;4512408;31;20147;-64
2022/05/06 02:34:37;;;;;;;2.55;1.80;;;18.80;51.90;;;;;;4512732;31;20232;-64
2022/05/06 02:37:03;;;;;;;1.52;1.42;;;18.80;51.90;;;;;;4501139;31;20140;-64
2022/05/06 02:39:29;;;;;;;1.63;1.42;;;18.80;51.90;;;;;;4515537;31;20104;-65
2022/05/06 02:41:55;;;;;;;1.50;1.40;;;18.80;51.90;;;;;;4514522;31;20124;-64
2022/05/06 02:44:21;;;;;;;1.40;1.30;;;18.80;51.90;;;;;;4515554;31;20144;-65
2022/05/06 02:46:47;;;;;;;1.45;1.35;;;18.80;51.90;;;;;;4514641;31;20139;-64
2022/05/06 02:49:13;;;;;;;1.50;1.40;;;18.80;51.90;;;;;;4515259;31;20136;-64
2022/05/06 02:51:40;;;;;;;1.77;1.40;;;18.80;51.90;;;;;;4501145;31;20144;-64
2022/05/06 02:54:07;;;;;;;1.45;1.35;;;18.80;51.80;;;;;;4514928;31;20132;-65
2022/05/06 02:56:33;;;;;;;1.90;1.50;;;18.80;51.90;;;;;;4515040;31;20136;-65
2022/05/06 02:58:59;;;;;;;2.03;1.50;;;18.80;51.80;;;;;;4514526;31;20482;-64
2022/05/06 03:01:25;;;;;;;1.90;1.60;;;18.80;51.80;;;;;;4501971;31;20554;-64
2022/05/06 03:03:52;;;;;;;1.75;1.50;;;18.70;51.70;;;;;;4501084;31;20662;-64
2022/05/06 03:06:18;;;;;;;1.65;1.40;;;18.70;51.70;;;;;;4501701;31;20143;-64
2022/05/06 03:08:43;;;;;;;1.92;1.73;;;18.70;51.70;;;;;;4514367;31;20120;-64
2022/05/06 03:11:10;;;;;;;1.40;1.30;;;18.70;51.70;;;;;;4514731;31;20135;-64
2022/05/06 03:13:35;;;;;;;2.00;1.38;;;18.70;51.70;;;;;;4515933;31;20466;-64
2022/05/06 03:16:02;;;;;;;1.80;1.35;;;18.70;51.70;;;;;;4500990;31;20651;-64
2022/05/06 03:18:28;;;;;;;1.83;1.48;;;18.70;51.70;;;;;;4501675;31;20556;-64
2022/05/06 03:20:54;;;;;;;2.00;1.33;;;18.70;51.70;;;;;;4513663;31;20148;-64
2022/05/06 03:23:20;;;;;;;1.95;1.50;;;18.70;51.70;;;;;;4516005;31;20213;-65
2022/05/06 03:25:46;;;;;;;1.40;1.10;;;18.70;51.70;;;;;;4514063;31;20517;-64
2022/05/06 03:28:11;;;;;;;1.60;1.50;;;18.70;51.70;;;;;;4514523;31;20124;-64
2022/05/06 03:30:44;;;;;;;1.45;1.35;;;18.70;51.70;;;;;;4501125;31;20136;-66
2022/05/06 03:33:13;;;;;;;1.40;1.30;;;18.70;51.70;;;;;;4515122;31;20585;-64
2022/05/06 03:35:40;;;;;;;1.50;1.35;;;18.70;51.70;;;;;;4515693;31;20129;-64
2022/05/06 03:38:06;;;;;;;1.60;1.30;;;18.70;51.70;;;;;;4513784;31;20147;-65
2022/05/06 03:40:33;;;;;;;1.73;1.23;;;18.70;51.70;;;;;;4514429;31;20131;-64
2022/05/06 03:43:00;;;;;;;1.50;1.40;;;18.70;51.70;;;;;;4513934;31;20262;-64
2022/05/06 03:45:26;;;;;;;1.48;1.33;;;18.70;51.70;;;;;;4501052;31;20585;-64
2022/05/06 03:47:54;;;;;;;1.60;1.30;;;18.60;51.60;;;;;;4513312;31;20189;-64
2022/05/06 03:53:06;;;;;;;1.52;1.40;;;18.60;51.60;;;;;;4514443;31;20298;-64
2022/05/06 03:55:32;;;;;;;1.67;1.38;;;18.60;51.60;;;;;;4513574;31;20124;-64
2022/05/06 03:57:58;;;;;;;1.45;1.20;;;18.60;51.60;;;;;;4515211;31;20120;-64
2022/05/06 04:00:26;;;;;;;2.75;1.30;;;18.60;51.60;;;;;;4500529;31;20132;-64
2022/05/06 04:02:52;;;;;;;1.85;1.38;;;18.60;51.60;;;;;;4514684;31;20139;-64
2022/05/06 04:05:18;;;;;;;1.60;1.30;;;18.60;51.70;;;;;;4514376;31;20173;-64
2022/05/06 04:07:44;;;;;;;1.75;1.30;;;18.60;51.60;;;;;;4513320;31;20135;-64
2022/05/06 04:10:10;;;;;;;1.88;1.50;;;18.60;51.70;;;;;;4500968;31;20132;-64
2022/05/06 04:12:36;;;;;;;1.48;1.30;;;18.60;51.70;;;;;;4500034;31;20135;-64
2022/05/06 04:15:03;;;;;;;1.55;1.15;;;18.50;51.60;;;;;;4513864;31;20600;-64
2022/05/06 04:17:29;;;;;;;1.30;1.10;;;18.60;51.60;;;;;;4513667;31;20624;-64
2022/05/06 04:25:23;;;;;;;1.20;1.10;;;18.60;51.70;;;;;;4513393;31;20263;-64
2022/05/06 04:27:50;;;;;;;2.00;1.20;;;18.50;51.70;;;;;;4513730;31;20124;-64
2022/05/06 04:30:16;;;;;;;1.40;1.30;;;18.50;51.70;;;;;;4513274;31;20139;-64
2022/05/06 04:32:45;;;;;;;1.30;1.20;;;18.50;51.70;;;;;;4514413;31;20136;-64
2022/05/06 04:35:11;;;;;;;1.25;1.10;;;18.50;51.60;;;;;;4513810;31;20524;-64
2022/05/06 04:37:37;;;;;;;1.42;1.33;;;18.50;51.70;;;;;;4512962;31;20124;-64
2022/05/06 04:40:04;;;;;;;1.13;1.02;;;18.50;51.70;;;;;;4500545;31;20140;-64
2022/05/06 04:42:30;;;;;;;1.48;1.38;;;18.50;51.70;;;;;;4512876;31;20128;-64
2022/05/06 04:44:56;;;;;;;1.25;1.13;;;18.60;51.80;;;;;;4513532;31;20116;-64
2022/05/06 04:47:22;;;;;;;1.30;1.20;;;18.50;51.70;;;;;;4514007;31;20220;-65
2022/05/06 04:49:48;;;;;;;2.22;1.13;;;18.50;51.70;;;;;;4514046;31;20128;-64
2022/05/06 04:52:13;;;;;;;1.10;1.00;;;18.50;51.70;;;;;;4513400;31;20142;-65
2022/05/06 04:54:40;;;;;;;1.80;1.20;;;18.50;51.70;;;;;;4513585;31;20136;-65
2022/05/06 04:57:06;;;;;;;1.00;0.95;;;18.50;51.70;;;;;;4514714;31;20138;-64
2022/05/06 04:59:32;;;;;;;1.20;1.10;;;18.50;51.70;;;;;;4513530;31;20138;-64
2022/05/06 05:01:58;;;;;;;1.52;1.17;;;18.50;51.80;;;;;;4499971;31;20108;-64
2022/05/06 05:04:27;;;;;;;1.10;1.00;;;18.50;51.80;;;;;;4499426;31;20128;-64
2022/05/06 05:06:54;;;;;;;1.27;1.10;;;18.50;51.80;;;;;;4512973;31;20143;-64
2022/05/06 05:09:20;;;;;;;1.27;1.15;;;18.50;51.80;;;;;;4499949;31;20148;-64
2022/05/06 05:11:47;;;;;;;1.40;1.30;;;18.50;51.80;;;;;;4513431;31;20136;-64
2022/05/06 05:14:14;;;;;;;1.25;1.15;;;18.50;51.80;;;;;;4514366;31;20144;-64
2022/05/06 05:16:40;;;;;;;1.30;1.20;;;18.50;51.80;;;;;;4512400;31;20128;-64
2022/05/06 05:19:05;;;;;;;1.20;1.10;;;18.50;51.80;;;;;;4513011;31;20120;-65
2022/05/06 05:21:31;;;;;;;0.90;0.90;;;18.50;51.80;;;;;;4498983;31;20243;-64
2022/05/06 05:23:57;;;;;;;1.20;1.10;;;18.50;51.90;;;;;;4499556;31;20136;-64
2022/05/06 05:26:24;;;;;;;1.85;1.30;;;18.50;51.90;;;;;;4512822;31;20528;-64
2022/05/06 05:28:50;;;;;;;1.40;1.30;;;18.40;51.90;;;;;;4512044;31;20143;-64
2022/05/06 05:31:16;;;;;;;1.30;1.20;;;18.40;51.90;;;;;;4513104;31;20120;-64
2022/05/06 05:33:41;;;;;;;1.10;1.00;;;18.40;51.90;;;;;;4511888;31;20745;-64
2022/05/06 05:36:07;;;;;;;1.15;1.05;;;18.40;52.80;;;;;;4512637;31;20127;-64
2022/05/06 05:38:33;;;;;;;1.20;1.10;;;18.40;51.90;;;;;;4513367;31;20204;-64
2022/05/06 05:40:59;;;;;;;1.13;1.00;;;18.40;51.90;;;;;;4512560;31;20120;-64
2022/05/06 05:48:54;;;;;;;1.38;1.27;;;18.40;51.90;;;;;;4513794;31;20117;-64
2022/05/06 05:51:19;;;;;;;1.13;1.02;;;18.40;51.90;;;;;;4498443;31;20147;-64
2022/05/06 05:53:46;;;;;;;1.25;1.15;;;18.40;51.90;;;;;;4513569;31;20112;-64
2022/05/06 05:56:13;;;;;;;1.00;0.90;;;18.40;51.90;;;;;;4512444;31;20613;-64
2022/05/06 05:58:39;;;;;;;1.17;1.08;;;18.40;51.90;;;;;;4511948;31;20140;-64
2022/05/06 06:01:05;;;;;;;1.20;1.10;;;18.40;51.90;;;;;;4513796;31;20132;-64
2022/05/06 06:03:31;;;;;;;1.40;1.10;;;18.40;51.90;;;;;;4512822;31;20154;-64
2022/05/06 06:05:56;;;;;;;1.45;1.10;;;18.40;51.90;;;;;;4513635;31;20124;-64
2022/05/06 06:08:24;;;;;;;1.45;0.95;;;18.40;51.90;;;;;;4511722;31;20139;-64
2022/05/06 06:10:50;;;;;;;1.35;1.00;;;18.40;52.00;;;;;;4511780;31;20144;-65
2022/05/06 06:13:17;;;;;;;1.13;1.02;;;18.40;52.00;;;;;;4498730;31;20274;-64
2022/05/06 06:15:42;;;;;;;1.38;1.00;;;18.40;52.00;;;;;;4513079;31;20711;-64
2022/05/06 06:18:08;;;;;;;1.73;0.98;;;18.40;52.00;;;;;;4512668;31;20108;-64
2022/05/06 06:20:34;;;;;;;0.95;0.88;;;18.40;52.00;;;;;;4498044;31;20258;-64
2022/05/06 06:23:00;;;;;;;1.15;1.05;;;18.30;51.90;;;;;;4512453;31;20250;-64
2022/05/06 06:25:26;;;;;;;1.45;1.00;;;18.30;51.90;;;;;;4498590;31;20128;-64
2022/05/06 06:27:52;;;;;;;1.10;1.00;;;18.30;52.00;;;;;;4513053;31;20256;-64
2022/05/06 06:30:18;;;;;;;1.15;1.05;;;18.30;52.00;;;;;;4512817;31;20135;-64
2022/05/06 06:32:44;;;;;;;1.30;1.20;;;18.30;52.00;;;;;;4498704;31;20123;-64
2022/05/06 06:35:09;;;;;;;1.30;1.10;;;18.30;52.00;;;;;;4513527;31;20184;-64
2022/05/06 06:37:35;;;;;;;1.20;1.10;;;18.30;52.00;;;;;;4511298;31;20133;-64
2022/05/06 06:40:01;;;;;;;0.98;0.95;;;18.30;52.00;;;;;;4512183;31;20128;-64
2022/05/06 06:42:27;;;;;;;1.88;1.10;;;18.30;52.10;;;;;;4511541;31;20197;-65
2022/05/06 06:44:53;;;;;;;0.95;0.90;;;18.30;52.00;;;;;;4512027;31;20144;-64
2022/05/06 06:47:19;;;;;;;1.15;1.05;;;18.30;52.10;;;;;;4511574;31;20144;-64
2022/05/06 06:49:45;;;;;;;1.25;1.02;;;18.30;52.00;;;;;;4511551;31;20258;-64
2022/05/06 06:52:11;;;;;;;1.38;1.08;;;18.40;52.10;;;;;;4512061;31;20119;-64
2022/05/06 06:54:36;;;;;;;1.45;1.33;;;18.30;52.10;;;;;;4498036;31;20139;-64
2022/05/06 06:57:04;;;;;;;2.35;1.08;;;18.30;52.10;;;;;;4513445;31;20186;-64
2022/05/06 06:59:30;;;;;;;2.35;1.80;;;18.40;52.20;;;;;;4511308;31;20134;-64
2022/05/06 07:01:56;;;;;;;4.32;3.28;;;18.30;52.30;;;;;;4498660;31;20132;-64
2022/05/06 07:04:22;;;;;;;6.15;4.07;;;18.30;52.60;;;;;;4498119;31;20266;-64
2022/05/06 07:12:16;;;;;;;4.07;3.13;;;18.30;53.10;;;;;;4511478;31;20128;-64
2022/05/06 07:14:42;;;;;;;6.63;3.45;;;18.30;53.20;;;;;;4498647;31;20196;-64
2022/05/06 07:17:08;;;;;;;4.15;3.38;;;18.30;53.30;;;;;;4498079;31;20125;-64
2022/05/06 07:19:34;;;;;;;4.22;3.40;;;18.30;53.40;;;;;;4498388;31;20318;-65
2022/05/06 07:22:00;;;;;;;4.20;3.65;;;18.30;53.60;;;;;;4512484;31;20120;-64
2022/05/06 07:24:25;;;;;;;3.80;3.15;;;18.30;53.80;;;;;;4515127;31;20158;-64
2022/05/06 07:26:53;;;;;;;5.07;2.90;;;18.30;54.10;;;;;;4501741;31;20136;-64
2022/05/06 07:29:19;;;;;;;3.90;3.10;;;18.30;54.10;;;;;;4500848;31;20132;-64
2022/05/06 07:31:46;;;;;;;3.38;2.83;;;18.30;54.10;;;;;;4514619;31;20124;-64
2022/05/06 07:34:13;;;;;;;4.07;3.20;;;18.30;54.10;;;;;;4515117;31;20128;-63
2022/05/06 07:36:41;;;;;;;5.80;3.67;;;18.30;54.10;;;;;;4515512;31;20146;-63
2022/05/06 07:39:11;;;;;;;5.53;3.97;;;18.40;54.40;;;;;;4515317;31;20147;-63
2022/05/06 07:41:37;;;;;;;5.10;4.40;;;18.30;54.40;;;;;;4514823;31;20534;-65
2022/05/06 07:44:04;;;;;;;5.53;4.28;;;18.30;54.50;;;;;;4514609;31;20132;-65
2022/05/06 07:46:31;;;;;;;4.75;3.97;;;18.30;54.60;;;;;;4513737;31;20124;-65
2022/05/06 07:48:56;;;;;;;5.57;4.68;;;18.30;54.80;;;;;;4501088;31;20143;-66
2022/05/06 07:51:22;;;;;;;4.65;3.90;;;18.30;55.10;;;;;;4513288;31;20120;-67
2022/05/06 07:53:51;;;;;;;5.10;3.70;;;18.30;55.20;;;;;;4515107;31;20129;-64
2022/05/06 07:56:20;;;;;;;4.65;4.03;;;18.30;55.20;;;;;;4514677;31;20148;-64
2022/05/06 07:58:47;;;;;;;4.03;3.47;;;18.40;55.40;;;;;;4500686;31;20127;-64
2022/05/06 08:01:13;;;;;;;4.32;3.92;;;18.40;55.40;;;;;;4514345;31;20135;-64
2022/05/06 08:06:24;;;;;;;6.13;3.78;;;18.40;55.60;;;;;;4515022;31;20144;-64
2022/05/06 08:08:50;;;;;;;6.20;3.60;;;18.40;55.70;;;;;;4500369;31;20128;-65
2022/05/06 08:11:17;;;;;;;4.15;3.75;;;18.40;55.80;;;;;;4513863;31;20138;-64
2022/05/06 08:13:45;;;;;;;6.50;3.58;;;18.40;55.90;;;;;;4501183;31;20120;-64
2022/05/06 08:16:10;;;;;;;4.20;3.70;;;18.40;55.80;;;;;;4498085;31;20167;-63
2022/05/06 08:18:37;;;;;;;4.28;3.60;;;18.40;55.90;;;;;;4484450;31;20140;-64
2022/05/06 08:21:03;;;;;;;3.17;2.88;;;18.40;56.00;;;;;;4496570;31;20128;-64
2022/05/06 08:23:29;;;;;;;3.97;2.80;;;18.40;56.00;;;;;;4497329;31;20124;-64
2022/05/06 08:25:55;;;;;;;4.28;3.00;;;18.50;56.00;;;;;;4496926;31;20577;-64
2022/05/06 08:28:22;;;;;;;4.40;2.83;;;18.50;56.00;;;;;;4497142;31;20129;-64
2022/05/06 08:30:49;;;;;;;3.80;2.33;;;18.50;55.90;;;;;;4498926;31;20117;-65
2022/05/06 08:33:16;;;;;;;7.32;3.40;;;18.50;56.00;;;;;;4483561;32;20201;-66
2022/05/06 08:35:42;;;;;;;15.15;2.45;;;18.50;56.10;;;;;;4497854;31;20136;-66
2022/05/06 08:38:08;;;;;;;10.88;3.10;;;18.50;56.20;;;;;;4498179;31;20132;-67
2022/05/06 08:40:38;;;;;;;6.28;3.00;;;18.50;56.30;;;;;;4484078;31;20128;-68
2022/05/06 08:43:05;;;;;;;3.97;2.60;;;18.50;56.30;;;;;;4510485;31;20140;-67
2022/05/06 08:51:03;;;;;;;4.28;2.03;;;18.60;56.40;;;;;;4496708;31;20144;-67
2022/05/06 08:53:31;;;;;;;5.72;2.10;;;18.60;56.30;;;;;;4484246;31;20132;-67
2022/05/06 08:55:59;;;;;;;12.18;2.42;;;18.60;56.20;;;;;;4483911;31;20132;-67
2022/05/06 08:58:34;;;;;;;8.05;2.10;;;18.60;56.20;;;;;;4497314;31;20117;-67
2022/05/06 09:01:07;;;;;;;2.78;2.00;;;18.60;56.20;;;;;;4485974;31;20145;-67
2022/05/06 09:03:39;;;;;;;2.67;2.15;;;18.60;56.20;;;;;;4498127;31;20139;-67
2022/05/06 09:06:19;;;;;;;6.15;2.17;;;18.60;56.10;;;;;;4484675;31;20125;-67
2022/05/06 09:08:47;;;;;;;2.25;1.80;;;18.70;56.10;;;;;;4496887;31;20124;-67
2022/05/06 09:11:14;;;;;;;3.22;2.00;;;18.70;56.10;;;;;;4496704;31;20191;-67
2022/05/06 09:14:00;;;;;;;1.90;1.60;;;18.70;56.00;;;;;;4497380;31;20132;-67
2022/05/06 09:16:46;;;;;;;4.10;2.28;;;18.70;56.00;;;;;;4496190;31;20392;-67
2022/05/06 09:19:20;;;;;;;5.28;1.88;;;18.70;56.00;;;;;;4496892;31;20151;-67
2022/05/06 09:22:04;;;;;;;2.03;1.60;;;18.70;56.00;;;;;;4496686;31;20647;-67
2022/05/06 09:24:31;;;;;;;2.08;1.52;;;18.80;55.90;;;;;;4497607;31;20243;-68
2022/05/06 09:27:11;;;;;;;4.25;1.60;;;18.80;55.90;;;;;;4498405;31;20670;-67
2022/05/06 09:29:44;;;;;;;2.05;1.52;;;18.80;56.00;;;;;;4497478;31;20589;-68
2022/05/06 09:32:23;;;;;;;5.00;1.65;;;18.80;55.90;;;;;;4496789;31;20147;-68
2022/05/06 09:34:54;;;;;;;1.88;1.60;;;18.80;55.90;;;;;;4497841;31;20132;-67
2022/05/06 09:37:43;;;;;;;5.20;2.08;;;18.80;55.90;;;;;;4497423;31;20140;-67
2022/05/06 09:40:16;;;;;;;1.80;1.30;;;18.80;55.90;;;;;;4483713;31;20222;-67
2022/05/06 09:42:55;;;;;;;1.90;1.70;;;18.80;55.70;;;;;;4497447;31;20155;-68
2022/05/06 09:45:33;;;;;;;2.72;1.90;;;18.80;55.80;;;;;;4495952;31;20279;-67
2022/05/06 09:48:03;;;;;;;1.52;1.42;;;18.90;55.90;;;;;;4496888;31;20315;-67
2022/05/06 09:50:38;;;;;;;1.63;1.40;;;18.90;55.80;;;;;;4495515;31;20140;-68
2022/05/06 09:53:07;;;;;;;2.22;1.50;;;18.90;55.80;;;;;;4496760;31;20179;-68
2022/05/06 09:55:41;;;;;;;1.80;1.25;;;18.90;55.70;;;;;;4497161;31;20144;-68
2022/05/06 09:58:08;;;;;;;2.35;1.40;;;18.90;55.70;;;;;;4497563;31;20144;-67
2022/05/06 10:00:35;;;;;;;2.72;1.55;;;18.90;55.60;;;;;;4483664;31;20600;-67
2022/05/06 10:03:02;;;;;;;2.10;1.50;;;18.90;55.70;;;;;;4496058;31;20160;-67
2022/05/06 10:05:29;;;;;;;1.98;1.40;;;18.90;55.60;;;;;;4497786;31;20145;-67
2022/05/06 10:07:58;;;;;;;3.45;1.77;;;18.90;55.60;;;;;;4496977;31;20133;-67
2022/05/06 10:10:28;;;;;;;2.38;1.65;;;19.00;55.60;;;;;;4496591;31;20132;-67
2022/05/06 10:12:58;;;;;;;1.73;1.40;;;19.00;55.60;;;;;;4497515;31;20132;-67
2022/05/06 10:15:28;;;;;;;2.63;1.67;;;19.00;55.60;;;;;;4497743;31;20661;-67
2022/05/06 10:17:59;;;;;;;1.48;1.30;;;19.00;55.60;;;;;;4497207;32;20278;-68
2022/05/06 10:20:35;;;;;;;3.25;1.40;;;19.00;55.50;;;;;;4496812;31;20263;-67
2022/05/06 10:23:07;;;;;;;1.98;1.27;;;19.00;55.60;;;;;;4496982;32;20286;-67
2022/05/06 10:25:42;;;;;;;1.58;1.48;;;19.00;55.60;;;;;;4497588;31;20120;-67
2022/05/06 10:34:12;;;;;;;1.58;1.48;;;19.00;55.50;;;;;;4497605;31;20667;-67
2022/05/06 10:36:41;;;;;;;1.40;1.30;;;19.00;55.50;;;;;;4496349;32;20190;-67
2022/05/06 10:39:23;;;;;;;1.40;1.30;;;19.00;55.60;;;;;;4496508;32;20213;-67
2022/05/06 10:42:01;;;;;;;1.83;1.42;;;19.00;55.50;;;;;;4495525;32;20217;-68
2022/05/06 10:44:38;;;;;;;1.30;1.20;;;19.00;55.50;;;;;;4497346;32;20148;-67
2022/05/06 10:47:13;;;;;;;2.63;1.30;;;19.00;55.50;;;;;;4483508;32;20139;-67
2022/05/06 10:49:39;;;;;;;1.42;1.20;;;19.00;55.50;;;;;;4482603;32;20233;-67
2022/05/06 10:52:14;;;;;;;1.77;1.38;;;19.00;55.50;;;;;;4496096;32;20246;-67
2022/05/06 10:54:47;;;;;;;1.40;1.30;;;19.00;55.50;;;;;;4495362;32;20147;-67
2022/05/06 10:57:14;;;;;;;;;;;19.00;55.50;;;;;;4485773;31;20154;-67
2022/05/06 10:59:55;;;;;;;1.70;1.35;;;19.00;55.50;;;;;;4498511;31;20044;-67
2022/05/06 11:02:26;;;;;;;1.27;1.05;;;19.00;55.40;;;;;;4500054;31;20144;-68
2022/05/06 11:04:54;;;;;;;2.25;1.27;;;19.00;55.40;;;;;;4499265;31;20129;-67
2022/05/06 11:07:20;;;;;;;1.40;1.25;;;19.10;55.40;;;;;;4498411;31;20285;-67
2022/05/06 11:09:47;;;;;;;1.60;1.50;;;19.00;55.40;;;;;;4500355;31;20550;-68
2022/05/06 11:12:34;;;;;;;2.85;1.50;;;19.00;55.30;;;;;;4485137;31;20143;-67
2022/05/06 11:15:03;;;;;;;4.97;1.70;;;19.10;56.10;;;;;;4499999;31;20124;-67
2022/05/06 11:17:32;;;;;;;1.60;1.50;;;19.20;55.90;;;;;;4485497;31;20258;-67
2022/05/06 11:20:04;;;;;;;2.92;1.70;;;19.30;55.70;;;;;;4499161;31;20207;-69
2022/05/06 11:22:33;;;;;;;5.72;1.77;;;19.40;55.60;;;;;;4500226;31;20144;-70
2022/05/06 11:25:03;;;;;;;3.53;1.50;;;19.60;55.50;;;;;;4499288;31;20583;-66
2022/05/06 11:27:29;;;;;;;3.20;1.42;;;19.70;55.40;;;;;;4499998;31;20129;-66
2022/05/06 11:29:57;;;;;;;16.05;1.70;;;19.70;55.30;;;;;;4499124;31;20209;-66
2022/05/06 11:32:24;;;;;;;3.45;1.70;;;19.80;55.20;;;;;;4499543;31;20566;-66
2022/05/06 11:35:01;;;;;;;4.93;1.42;;;19.90;55.20;;;;;;4498693;31;20628;-66
2022/05/06 11:37:33;;;;;;;2.30;1.60;;;19.90;55.10;;;;;;4498918;31;20125;-65
2022/05/06 11:42:45;;;;;;;3.42;1.20;;;20.00;55.00;;;;;;4499018;31;20491;-66
2022/05/06 11:48:08;;;;;;;4.40;1.10;;;20.10;54.80;;;;;;4499933;31;20134;-65
2022/05/06 11:50:38;;;;;;;1.88;1.05;;;20.10;54.70;;;;;;4497279;31;20140;-65
2022/05/06 11:53:08;;;;;;;1.65;1.02;;;20.20;54.60;;;;;;4499483;31;20282;-66
2022/05/06 11:55:38;;;;;;;3.05;1.27;;;20.20;54.60;;;;;;4498924;31;20147;-65
2022/05/06 11:58:05;;;;;;;2.90;1.30;;;20.30;54.60;;;;;;4499368;31;20125;-66
2022/05/06 12:00:31;;;;;;;1.75;1.20;;;20.30;54.40;;;;;;4499422;31;20271;-66
2022/05/06 12:03:02;;;;;;;2.00;1.05;;;20.40;54.40;;;;;;4484726;31;20125;-66
2022/05/06 12:05:29;;;;;;;2.13;1.10;;;20.40;54.40;;;;;;4498531;31;20274;-68
2022/05/06 12:07:55;;;;;;;2.83;0.95;;;20.50;54.40;;;;;;4497176;31;20612;-67
2022/05/06 12:10:28;;;;;;;1.42;0.90;;;20.50;54.30;;;;;;4484588;31;20144;-66
2022/05/06 12:12:57;;;;;;;2.08;1.10;;;20.50;54.20;;;;;;4498937;31;20120;-66
2022/05/06 12:15:29;;;;;;;4.15;1.30;;;20.50;54.10;;;;;;4498654;31;20213;-66
2022/05/06 12:18:03;;;;;;;4.35;1.10;;;20.50;54.10;;;;;;4499284;31;20134;-66
2022/05/06 12:20:38;;;;;;;;;;;20.50;54.10;;;;;;4498959;31;20160;-66
2022/05/06 12:23:11;;;;;;;4.07;1.10;;;20.50;54.20;;;;;;4499019;31;20130;-67
2022/05/06 12:25:39;;;;;;;5.50;1.10;;;20.50;54.00;;;;;;4498338;31;20140;-67
2022/05/06 12:28:17;;;;;;;5.07;1.00;;;20.50;54.10;;;;;;4498867;31;20140;-67
2022/05/06 12:30:44;;;;;;;2.92;1.10;;;20.60;54.20;;;;;;4498007;31;20163;-67
2022/05/06 12:33:12;;;;;;;2.03;1.10;;;20.60;54.00;;;;;;4498192;31;20601;-69
2022/05/06 12:36:01;;;;;;;5.70;1.20;;;20.60;53.90;;;;;;4498718;31;20136;-67
2022/05/06 12:38:36;;;;;;;1.85;1.08;;;20.70;54.00;;;;;;4504670;31;20190;-68
2022/05/06 12:41:20;;;;;;;4.75;1.13;;;20.70;53.90;;;;;;4513498;31;20150;-67
2022/05/06 12:43:47;;;;;;;3.80;1.13;;;20.70;53.90;;;;;;4513690;31;20150;-63
2022/05/06 12:46:27;;;;;;;3.75;1.00;;;20.70;54.80;;;;;;4512716;31;20132;-64
2022/05/06 12:51:40;;;;;;;5.35;1.13;;;20.80;53.90;;;;;;4513672;31;20273;-64
2022/05/06 12:54:07;;;;;;;2.17;1.02;;;20.80;53.80;;;;;;4514147;31;20122;-64
2022/05/06 12:56:34;;;;;;;2.67;1.20;;;20.80;53.70;;;;;;4513658;31;20163;-64
2022/05/06 12:59:00;;;;;;;4.03;1.05;;;20.80;53.70;;;;;;4499259;31;20139;-64
2022/05/06 13:01:26;;;;;;;2.08;1.10;;;20.80;53.60;;;;;;4514429;31;20128;-65
2022/05/06 13:03:52;;;;;;;2.17;1.23;;;20.90;53.60;;;;;;4499177;31;20116;-64
2022/05/06 13:06:18;;;;;;;3.22;1.30;;;20.80;53.50;;;;;;4494932;31;20230;-64
2022/05/06 13:08:44;;;;;;;3.70;1.10;;;20.90;53.50;;;;;;4497020;31;20267;-64
2022/05/06 13:11:10;;;;;;;1.60;0.93;;;20.90;53.50;;;;;;4497605;31;20147;-64
2022/05/06 13:13:36;;;;;;;4.10;1.23;;;20.90;53.40;;;;;;4484523;31;20124;-64
2022/05/06 13:16:02;;;;;;;1.83;1.00;;;20.90;53.40;;;;;;4483280;31;20124;-64
2022/05/06 13:18:30;;;;;;;3.47;1.10;;;20.80;53.40;;;;;;4484265;31;20141;-64
2022/05/06 13:20:56;;;;;;;1.48;1.17;;;20.80;53.50;;;;;;4483304;31;20129;-63
2022/05/06 13:23:22;;;;;;;2.17;1.10;;;20.80;53.50;;;;;;4483913;31;20143;-64
2022/05/06 13:25:49;;;;;;;1.92;1.25;;;20.80;53.60;;;;;;4496751;31;20125;-64
2022/05/06 13:28:15;;;;;;;1.58;1.00;;;20.70;53.60;;;;;;4470751;31;20659;-65
2022/05/06 13:30:41;;;;;;;3.92;1.30;;;20.70;53.70;;;;;;4497028;31;20140;-64
2022/05/06 13:33:07;;;;;;;3.38;1.10;;;20.70;53.70;;;;;;4497242;31;20180;-64
2022/05/06 13:35:33;;;;;;;3.40;1.20;;;20.60;53.70;;;;;;4496985;31;20233;-64
2022/05/06 13:38:00;;;;;;;3.10;1.20;;;20.60;53.80;;;;;;4483313;31;20435;-63
2022/05/06 13:40:26;;;;;;;2.58;1.40;;;20.60;53.80;;;;;;4497768;31;20141;-64